Ann Arbor, Michigan
Current Conditions -  °F | °C
As of 8:53 PM on Friday 21 Nov 2014 (Local Time) from KARB Reporting Station
Clear Clear  
Wind Chill: 11°   Ceiling: Unl
Heat Index: 18°   Visibility: 10mi
Dew Point: 10°   Wind: 5mph
Humidity: 71%   Direction: 200°SSW
Pressure: 30.37"   Gusts: NA
Location:  42.28°N, 83.75°W
Report Text: KARB 220153Z AUTO 20004KT 10SM CLR M08/M12 A3037 RMK AO2 SLP302 T10781122
Loading
Personal Weather Stations






























Interactive Weather Map New forecast layout! Learn more

10-Day Weather Forecast

Advertisements
Track Severe Weather on mobile